createdAt,value
2019-02-24T00:00:48.448Z,1028.71
2019-02-24T00:01:48.412Z,1028.77
2019-02-24T00:02:48.413Z,1028.72
2019-02-24T00:03:48.432Z,1028.70
2019-02-24T00:04:48.391Z,1028.76
2019-02-24T00:05:48.375Z,1028.74
2019-02-24T00:06:48.380Z,1028.76
2019-02-24T00:07:48.367Z,1028.78
2019-02-24T00:08:48.402Z,1028.77
2019-02-24T00:09:48.332Z,1028.71
2019-02-24T00:10:48.323Z,1028.72
2019-02-24T00:11:48.303Z,1028.72
2019-02-24T00:12:48.828Z,1028.71
2019-02-24T00:13:48.313Z,1028.71
2019-02-24T00:14:48.331Z,1028.73
2019-02-24T00:15:48.263Z,1028.67
2019-02-24T00:16:48.306Z,1028.68
2019-02-24T00:17:48.259Z,1028.65
2019-02-24T00:18:48.249Z,1028.65
2019-02-24T00:19:48.234Z,1028.71
2019-02-24T00:20:48.253Z,1028.68
2019-02-24T00:21:48.199Z,1028.67
2019-02-24T00:22:48.255Z,1028.64
2019-02-24T00:23:48.195Z,1028.67
2019-02-24T00:24:48.180Z,1028.63
2019-02-24T00:25:48.200Z,1028.67
2019-02-24T00:26:48.162Z,1028.67
2019-02-24T00:27:48.168Z,1028.67
2019-02-24T00:28:48.135Z,1028.71
2019-02-24T00:29:48.133Z,1028.63
2019-02-24T00:30:48.114Z,1028.63
2019-02-24T00:31:48.137Z,1028.66
2019-02-24T00:32:48.103Z,1028.73
2019-02-24T00:33:48.077Z,1028.66
2019-02-24T00:34:48.137Z,1028.69
2019-02-24T00:35:48.063Z,1028.68
2019-02-24T00:36:48.094Z,1028.63
2019-02-24T00:37:48.040Z,1028.64
2019-02-24T00:38:48.017Z,1028.64
2019-02-24T00:39:48.045Z,1028.62
2019-02-24T00:40:47.995Z,1028.68
2019-02-24T00:41:48.019Z,1028.67
2019-02-24T00:42:48.028Z,1028.66
2019-02-24T00:43:47.975Z,1028.69
2019-02-24T00:44:47.991Z,1028.60
2019-02-24T00:45:47.954Z,1028.62
2019-02-24T00:46:47.954Z,1028.56
2019-02-24T00:47:47.971Z,1028.56
2019-02-24T00:48:47.965Z,1028.51
2019-02-24T00:49:47.923Z,1028.47
2019-02-24T00:50:47.928Z,1028.48
2019-02-24T00:51:47.892Z,1028.49
2019-02-24T00:52:47.867Z,1028.48
2019-02-24T00:53:47.897Z,1028.53
2019-02-24T00:54:47.891Z,1028.55
2019-02-24T00:55:47.831Z,1028.53
2019-02-24T00:56:47.830Z,1028.55
2019-02-24T00:57:47.848Z,1028.51
2019-02-24T00:58:47.840Z,1028.51
2019-02-24T00:59:47.802Z,1028.51
2019-02-24T01:00:47.817Z,1028.55
2019-02-24T01:01:47.814Z,1028.53
2019-02-24T01:02:47.768Z,1028.57
2019-02-24T01:03:47.781Z,1028.62
2019-02-24T01:04:47.750Z,1028.53
2019-02-24T01:05:47.739Z,1028.49
2019-02-24T01:06:47.728Z,1028.48
2019-02-24T01:07:47.726Z,1028.51
2019-02-24T01:08:47.747Z,1028.52
2019-02-24T01:09:47.692Z,1028.55
2019-02-24T01:10:47.709Z,1028.49
2019-02-24T01:11:47.671Z,1028.48
2019-02-24T01:12:47.680Z,1028.41
2019-02-24T01:13:47.699Z,1028.40
2019-02-24T01:14:47.657Z,1028.50
2019-02-24T01:15:47.637Z,1028.50
2019-02-24T01:16:47.627Z,1028.48
2019-02-24T01:17:47.603Z,1028.48
2019-02-24T01:18:47.725Z,1028.51
2019-02-24T01:19:47.603Z,1028.49
2019-02-24T01:20:47.572Z,1028.53
2019-02-24T01:21:47.557Z,1028.52
2019-02-24T01:22:47.607Z,1028.49
2019-02-24T01:23:47.541Z,1028.53
2019-02-24T01:24:47.600Z,1028.49
2019-02-24T01:25:47.567Z,1028.48
2019-02-24T01:26:47.529Z,1028.52
2019-02-24T01:27:47.488Z,1028.48
2019-02-24T01:28:47.479Z,1028.50
2019-02-24T01:29:47.539Z,1028.51
2019-02-24T01:30:47.459Z,1028.51
2019-02-24T01:31:47.484Z,1028.56
2019-02-24T01:32:47.446Z,1028.53
2019-02-24T01:33:47.455Z,1028.54
2019-02-24T01:34:47.455Z,1028.54
2019-02-24T01:35:47.419Z,1028.54
2019-02-24T01:36:47.653Z,1028.56
2019-02-24T01:37:47.403Z,1028.57
2019-02-24T01:38:47.406Z,1028.60
2019-02-24T01:39:47.433Z,1028.62
2019-02-24T01:40:47.357Z,1028.66
2019-02-24T01:41:47.363Z,1028.65
2019-02-24T01:42:47.330Z,1028.60
2019-02-24T01:43:47.335Z,1028.64
2019-02-24T01:44:47.355Z,1028.56
2019-02-24T01:45:47.350Z,1028.59
2019-02-24T01:46:47.295Z,1028.50
2019-02-24T01:47:47.311Z,1028.50
2019-02-24T01:48:47.278Z,1028.51
2019-02-24T01:49:47.272Z,1028.50
2019-02-24T01:50:47.347Z,1028.50
2019-02-24T01:51:47.260Z,1028.53
2019-02-24T01:52:47.224Z,1028.50
2019-02-24T01:53:47.232Z,1028.48
2019-02-24T01:54:47.210Z,1028.46
2019-02-24T01:55:47.220Z,1028.55
2019-02-24T01:56:47.217Z,1028.49
2019-02-24T01:57:47.167Z,1028.51
2019-02-24T01:58:47.184Z,1028.51
2019-02-24T01:59:47.147Z,1028.48
2019-02-24T02:00:47.169Z,1028.46
2019-02-24T02:01:47.139Z,1028.41
2019-02-24T02:02:47.207Z,1028.38
2019-02-24T02:03:47.111Z,1028.33
2019-02-24T02:04:47.095Z,1028.35
2019-02-24T02:05:47.157Z,1028.38
2019-02-24T02:06:47.120Z,1028.31
2019-02-24T02:07:47.066Z,1028.27
2019-02-24T02:08:47.077Z,1028.27
2019-02-24T02:09:47.040Z,1028.29
2019-02-24T02:10:47.056Z,1028.31
2019-02-24T02:11:47.047Z,1028.30
2019-02-24T02:12:47.015Z,1028.28
2019-02-24T02:13:47.018Z,1028.30
2019-02-24T02:14:46.999Z,1028.30
2019-02-24T02:15:46.996Z,1028.29
2019-02-24T02:16:47.014Z,1028.22
2019-02-24T02:17:46.991Z,1028.24
2019-02-24T02:18:46.949Z,1028.17
2019-02-24T02:19:46.991Z,1028.17
2019-02-24T02:20:46.944Z,1028.11
2019-02-24T02:21:47.032Z,1028.18
2019-02-24T02:22:46.927Z,1028.23
2019-02-24T02:23:46.955Z,1028.14
2019-02-24T02:24:46.889Z,1028.08
2019-02-24T02:25:46.879Z,1028.19
2019-02-24T02:26:46.908Z,1028.22
2019-02-24T02:27:46.855Z,1028.16
2019-02-24T02:28:46.876Z,1028.17
2019-02-24T02:29:46.835Z,1028.20
2019-02-24T02:30:46.859Z,1028.15
2019-02-24T02:31:46.809Z,1028.21
2019-02-24T02:32:46.855Z,1028.17
2019-02-24T02:33:46.816Z,1028.24
2019-02-24T02:34:46.797Z,1028.22
2019-02-24T02:35:46.800Z,1028.22
2019-02-24T02:36:46.753Z,1028.25
2019-02-24T02:37:46.824Z,1028.24
2019-02-24T02:38:46.753Z,1028.26
2019-02-24T02:39:46.735Z,1028.24
2019-02-24T02:40:46.736Z,1028.30
2019-02-24T02:41:46.718Z,1028.27
2019-02-24T02:42:46.698Z,1028.25
2019-02-24T02:43:46.745Z,1028.23
2019-02-24T02:44:46.663Z,1028.11
2019-02-24T02:45:46.693Z,1028.14
2019-02-24T02:46:46.651Z,1028.16
2019-02-24T02:47:46.634Z,1028.20
2019-02-24T02:48:46.659Z,1028.24
2019-02-24T02:49:46.637Z,1028.15
2019-02-24T02:50:46.645Z,1028.15
2019-02-24T02:51:46.585Z,1028.22
2019-02-24T02:52:46.607Z,1028.21
2019-02-24T02:53:48.506Z,1028.20
2019-02-24T02:54:46.574Z,1028.15
2019-02-24T02:55:46.584Z,1028.20
2019-02-24T02:56:46.583Z,1028.23
2019-02-24T02:57:46.546Z,1028.22
2019-02-24T02:58:53.852Z,1028.17
2019-02-24T02:59:47.521Z,1028.22
2019-02-24T03:00:46.520Z,1028.22
2019-02-24T03:01:46.493Z,1028.14
2019-02-24T03:02:46.490Z,1028.18
2019-02-24T03:03:46.525Z,1028.24
2019-02-24T03:04:46.454Z,1028.11
2019-02-24T03:05:46.444Z,1028.15
2019-02-24T03:06:46.460Z,1028.18
2019-02-24T03:07:46.427Z,1028.08
2019-02-24T03:08:46.440Z,1028.10
2019-02-24T03:09:46.443Z,1028.07
2019-02-24T03:10:46.416Z,1028.19
2019-02-24T03:11:46.386Z,1028.11
2019-02-24T03:12:46.405Z,1028.08
2019-02-24T03:13:46.356Z,1028.06
2019-02-24T03:14:46.379Z,1028.06
2019-02-24T03:15:46.338Z,1028.08
2019-02-24T03:16:46.380Z,1028.05
2019-02-24T03:17:46.318Z,1028.03
2019-02-24T03:18:46.300Z,1028.07
2019-02-24T03:19:46.986Z,1028.11
2019-02-24T03:20:46.294Z,1028.08
2019-02-24T03:21:46.281Z,1028.07
2019-02-24T03:22:46.304Z,1028.08
2019-02-24T03:23:46.289Z,1028.11
2019-02-24T03:24:46.284Z,1028.04
2019-02-24T03:25:46.242Z,1028.03
2019-02-24T03:26:46.260Z,1028.08
2019-02-24T03:27:46.226Z,1028.05
2019-02-24T03:28:46.216Z,1028.05
2019-02-24T03:29:46.217Z,1028.04
2019-02-24T03:30:46.263Z,1028.04
2019-02-24T03:31:46.186Z,1028.11
2019-02-24T03:32:46.159Z,1028.15
2019-02-24T03:33:46.165Z,1028.24
2019-02-24T03:34:46.174Z,1028.23
2019-02-24T03:35:46.164Z,1028.22
2019-02-24T03:36:46.129Z,1028.31
2019-02-24T03:37:46.113Z,1028.36
2019-02-24T03:38:46.143Z,1028.40
2019-02-24T03:39:46.116Z,1028.34
2019-02-24T03:40:46.103Z,1028.38
2019-02-24T03:41:46.131Z,1028.43
2019-02-24T03:42:46.076Z,1028.34
2019-02-24T03:43:46.068Z,1028.36
2019-02-24T03:44:46.025Z,1028.43
2019-02-24T03:45:46.026Z,1028.35
2019-02-24T03:46:46.039Z,1028.31
2019-02-24T03:47:46.025Z,1028.31
2019-02-24T03:48:46.026Z,1028.32
2019-02-24T03:49:45.997Z,1028.41
2019-02-24T03:50:45.986Z,1028.42
2019-02-24T03:51:46.024Z,1028.35
2019-02-24T03:52:46.018Z,1028.29
2019-02-24T03:53:45.956Z,1028.31
2019-02-24T03:54:45.933Z,1028.28
2019-02-24T03:55:45.916Z,1028.31
2019-02-24T03:56:45.901Z,1028.23
2019-02-24T03:57:45.942Z,1028.24
2019-02-24T03:58:45.876Z,1028.33
2019-02-24T03:59:45.866Z,1028.28
2019-02-24T04:00:45.863Z,1028.29
2019-02-24T04:01:45.871Z,1028.30
2019-02-24T04:02:45.869Z,1028.31
2019-02-24T04:03:45.826Z,1028.37
2019-02-24T04:04:45.811Z,1028.36
2019-02-24T04:05:45.799Z,1028.30
2019-02-24T04:06:45.841Z,1028.33
2019-02-24T04:07:45.818Z,1028.31
2019-02-24T04:08:45.770Z,1028.38
2019-02-24T04:09:45.769Z,1028.39
2019-02-24T04:10:45.748Z,1028.34
2019-02-24T04:11:45.734Z,1028.35
2019-02-24T04:12:45.728Z,1028.41
2019-02-24T04:13:45.740Z,1028.46
2019-02-24T04:14:45.760Z,1028.49
2019-02-24T04:15:45.701Z,1028.47
2019-02-24T04:16:45.693Z,1028.48
2019-02-24T04:17:45.674Z,1028.50
2019-02-24T04:18:45.698Z,1028.51
2019-02-24T04:19:45.649Z,1028.43
2019-02-24T04:20:45.646Z,1028.54
2019-02-24T04:21:45.633Z,1028.51
2019-02-24T04:22:45.618Z,1028.54
2019-02-24T04:23:45.639Z,1028.52
2019-02-24T04:24:45.640Z,1028.55
2019-02-24T04:25:45.624Z,1028.60
2019-02-24T04:26:45.595Z,1028.55
2019-02-24T04:27:45.567Z,1028.54
2019-02-24T04:28:45.581Z,1028.62
2019-02-24T04:29:45.546Z,1028.62
2019-02-24T04:30:45.535Z,1028.53
2019-02-24T04:31:45.526Z,1028.55
2019-02-24T04:32:45.509Z,1028.51
2019-02-24T04:33:45.511Z,1028.54
2019-02-24T04:34:45.514Z,1028.55
2019-02-24T04:35:45.477Z,1028.46
2019-02-24T04:36:45.524Z,1028.49
2019-02-24T04:37:45.459Z,1028.50
2019-02-24T04:38:45.452Z,1028.50
2019-02-24T04:39:45.498Z,1028.51
2019-02-24T04:40:45.431Z,1028.50
2019-02-24T04:41:45.424Z,1028.47
2019-02-24T04:42:45.402Z,1028.48
2019-02-24T04:43:45.401Z,1028.54
2019-02-24T04:44:45.401Z,1028.49
2019-02-24T04:45:45.404Z,1028.48
2019-02-24T04:46:45.361Z,1028.51
2019-02-24T04:47:45.377Z,1028.49
2019-02-24T04:48:45.341Z,1028.47
2019-02-24T04:49:45.331Z,1028.50
2019-02-24T04:50:45.347Z,1028.50
2019-02-24T04:51:45.315Z,1028.54
2019-02-24T04:52:45.303Z,1028.56
2019-02-24T04:53:45.283Z,1028.56
2019-02-24T04:54:45.273Z,1028.56
2019-02-24T04:55:45.298Z,1028.55
2019-02-24T04:56:45.257Z,1028.54
2019-02-24T04:57:45.253Z,1028.57
2019-02-24T04:58:45.264Z,1028.55
2019-02-24T04:59:45.256Z,1028.50
2019-02-24T05:00:45.209Z,1028.52
2019-02-24T05:01:45.255Z,1028.51
2019-02-24T05:02:45.197Z,1028.50
2019-02-24T05:03:45.182Z,1028.51
2019-02-24T05:04:45.169Z,1028.47
2019-02-24T05:05:45.159Z,1028.41
2019-02-24T05:06:45.179Z,1028.46
2019-02-24T05:07:45.138Z,1028.41
2019-02-24T05:08:45.123Z,1028.42
2019-02-24T05:09:45.112Z,1028.42
2019-02-24T05:10:45.130Z,1028.43
2019-02-24T05:11:45.144Z,1028.39
2019-02-24T05:12:45.081Z,1028.38
2019-02-24T05:13:45.073Z,1028.31
2019-02-24T05:14:45.066Z,1028.38
2019-02-24T05:15:45.048Z,1028.36
2019-02-24T05:16:45.081Z,1028.35
2019-02-24T05:17:45.039Z,1028.28
2019-02-24T05:18:45.019Z,1028.33
2019-02-24T05:19:45.005Z,1028.29
2019-02-24T05:20:45.017Z,1028.29
2019-02-24T05:21:45.089Z,1028.36
2019-02-24T05:22:44.978Z,1028.27
2019-02-24T05:23:44.966Z,1028.32
2019-02-24T05:24:44.950Z,1028.18
2019-02-24T05:25:44.963Z,1028.23
2019-02-24T05:26:44.933Z,1028.21
2019-02-24T05:27:44.961Z,1028.24
2019-02-24T05:28:44.906Z,1028.19
2019-02-24T05:29:46.294Z,1028.20
2019-02-24T05:30:44.921Z,1028.12
2019-02-24T05:31:44.894Z,1028.14
2019-02-24T05:32:44.961Z,1028.18
2019-02-24T05:33:44.855Z,1028.12
2019-02-24T05:34:44.844Z,1028.13
2019-02-24T05:35:44.836Z,1028.08
2019-02-24T05:36:44.850Z,1028.07
2019-02-24T05:37:44.837Z,1028.06
2019-02-24T05:38:44.803Z,1028.13
2019-02-24T05:39:44.786Z,1028.14
2019-02-24T05:40:44.784Z,1028.09
2019-02-24T05:41:44.768Z,1028.22
2019-02-24T05:42:44.809Z,1028.24
2019-02-24T05:43:44.787Z,1028.22
2019-02-24T05:44:44.733Z,1028.22
2019-02-24T05:45:44.722Z,1028.18
2019-02-24T05:46:44.711Z,1028.22
2019-02-24T05:47:44.709Z,1028.21
2019-02-24T05:48:44.751Z,1028.21
2019-02-24T05:49:44.683Z,1028.14
2019-02-24T05:50:44.678Z,1028.22
2019-02-24T05:51:44.657Z,1028.14
2019-02-24T05:52:44.648Z,1028.19
2019-02-24T05:53:44.640Z,1028.20
2019-02-24T05:54:44.729Z,1028.18
2019-02-24T05:55:44.634Z,1028.21
2019-02-24T05:56:44.615Z,1028.18
2019-02-24T05:57:44.609Z,1028.18
2019-02-24T05:58:44.584Z,1028.15
2019-02-24T05:59:44.598Z,1028.12
2019-02-24T06:00:44.564Z,1028.05
2019-02-24T06:01:44.551Z,1028.10
2019-02-24T06:02:44.544Z,1028.09
2019-02-24T06:03:44.546Z,1028.06
2019-02-24T06:04:44.544Z,1028.02
2019-02-24T06:05:44.508Z,1028.03
2019-02-24T06:06:44.495Z,1027.98
2019-02-24T06:07:44.492Z,1027.98
2019-02-24T06:08:44.475Z,1028.01
2019-02-24T06:09:44.514Z,1027.99
2019-02-24T06:10:44.490Z,1027.98
2019-02-24T06:11:44.458Z,1028.00
2019-02-24T06:12:44.438Z,1027.99
2019-02-24T06:13:44.420Z,1028.06
2019-02-24T06:14:44.461Z,1028.09
2019-02-24T06:15:44.400Z,1028.11
2019-02-24T06:16:44.406Z,1028.08
2019-02-24T06:17:44.391Z,1028.22
2019-02-24T06:18:44.388Z,1028.31
2019-02-24T06:19:44.362Z,1028.36
2019-02-24T06:20:44.374Z,1028.43
2019-02-24T06:21:44.352Z,1028.49
2019-02-24T06:22:44.330Z,1028.48
2019-02-24T06:23:44.326Z,1028.58
2019-02-24T06:24:44.309Z,1028.55
2019-02-24T06:25:44.364Z,1028.59
2019-02-24T06:26:44.293Z,1028.50
2019-02-24T06:27:44.309Z,1028.59
2019-02-24T06:28:44.262Z,1028.55
2019-02-24T06:29:44.251Z,1028.52
2019-02-24T06:30:44.283Z,1028.48
2019-02-24T06:31:44.234Z,1028.50
2019-02-24T06:32:44.228Z,1028.50
2019-02-24T06:33:44.211Z,1028.49
2019-02-24T06:34:44.207Z,1028.51
2019-02-24T06:35:44.186Z,1028.48
2019-02-24T06:36:44.205Z,1028.48
2019-02-24T06:37:44.174Z,1028.50
2019-02-24T06:38:44.192Z,1028.55
2019-02-24T06:39:44.150Z,1028.58
2019-02-24T06:40:44.142Z,1028.55
2019-02-24T06:41:44.147Z,1028.52
2019-02-24T06:42:44.114Z,1028.50
2019-02-24T06:43:44.109Z,1028.47
2019-02-24T06:44:44.098Z,1028.56
2019-02-24T06:45:44.113Z,1028.49
2019-02-24T06:46:44.103Z,1028.59
2019-02-24T06:47:44.062Z,1028.51
2019-02-24T06:48:44.055Z,1028.58
2019-02-24T06:49:44.067Z,1028.57
2019-02-24T06:50:44.041Z,1028.65
2019-02-24T06:51:44.057Z,1028.65
2019-02-24T06:52:44.019Z,1028.64
2019-02-24T06:53:43.999Z,1028.65
2019-02-24T06:54:43.996Z,1028.63
2019-02-24T06:55:43.980Z,1028.66
2019-02-24T06:56:43.970Z,1028.63
2019-02-24T06:57:43.984Z,1028.70
2019-02-24T06:58:43.945Z,1028.68
2019-02-24T06:59:43.937Z,1028.64
2019-02-24T07:00:43.973Z,1028.71
2019-02-24T07:01:43.911Z,1028.69
2019-02-24T07:02:43.933Z,1028.74
2019-02-24T07:03:43.896Z,1028.80
2019-02-24T07:04:43.887Z,1028.76
2019-02-24T07:05:43.880Z,1028.84
2019-02-24T07:06:43.877Z,1028.84
2019-02-24T07:07:43.901Z,1028.84
2019-02-24T07:08:43.847Z,1028.83
2019-02-24T07:09:43.827Z,1028.85
2019-02-24T07:10:43.818Z,1028.92
2019-02-24T07:11:43.811Z,1028.89
2019-02-24T07:12:43.812Z,1028.93
2019-02-24T07:13:43.818Z,1028.98
2019-02-24T07:14:43.775Z,1029.00
2019-02-24T07:15:43.764Z,1029.01
2019-02-24T07:16:43.751Z,1028.93
2019-02-24T07:17:43.754Z,1028.96
2019-02-24T07:18:43.799Z,1028.89
2019-02-24T07:19:43.721Z,1028.94
2019-02-24T07:20:43.743Z,1028.95
2019-02-24T07:21:43.702Z,1028.96
2019-02-24T07:22:43.692Z,1028.93
2019-02-24T07:23:43.726Z,1029.00
2019-02-24T07:24:43.665Z,1029.01
2019-02-24T07:25:43.656Z,1028.97
2019-02-24T07:26:43.679Z,1029.04
2019-02-24T07:27:43.647Z,1029.06
2019-02-24T07:28:43.628Z,1029.02
2019-02-24T07:29:43.643Z,1029.03
2019-02-24T07:30:43.612Z,1029.02
2019-02-24T07:31:43.592Z,1028.97
2019-02-24T07:32:43.588Z,1029.05
2019-02-24T07:33:43.576Z,1029.05
2019-02-24T07:34:43.660Z,1029.02
2019-02-24T07:35:43.551Z,1028.95
2019-02-24T07:36:43.563Z,1028.93
2019-02-24T07:37:43.532Z,1028.95
2019-02-24T07:38:43.515Z,1028.92
2019-02-24T07:39:43.537Z,1028.90
2019-02-24T07:40:43.500Z,1028.88
2019-02-24T07:41:43.507Z,1028.87
2019-02-24T07:42:43.481Z,1028.77
2019-02-24T07:43:43.461Z,1028.79
2019-02-24T07:44:43.483Z,1028.79
2019-02-24T07:45:43.442Z,1028.75
2019-02-24T07:46:43.443Z,1028.78
2019-02-24T07:47:43.431Z,1028.80
2019-02-24T07:48:43.411Z,1028.89
2019-02-24T07:49:43.443Z,1028.82
2019-02-24T07:50:43.390Z,1028.85
2019-02-24T07:51:43.392Z,1028.88
2019-02-24T07:52:43.368Z,1028.79
2019-02-24T07:53:43.364Z,1028.83
2019-02-24T07:54:43.382Z,1028.88
2019-02-24T07:55:43.346Z,1028.84
2019-02-24T07:56:43.324Z,1028.81
2019-02-24T07:57:43.313Z,1028.85
2019-02-24T07:58:43.302Z,1028.86
2019-02-24T07:59:43.337Z,1028.87
2019-02-24T08:00:43.290Z,1028.83
2019-02-24T08:01:43.276Z,1028.80
2019-02-24T08:02:43.269Z,1028.76
2019-02-24T08:03:43.255Z,1028.70
2019-02-24T08:04:43.267Z,1028.65
2019-02-24T08:05:43.245Z,1028.72
2019-02-24T08:06:43.217Z,1028.63
2019-02-24T08:07:43.228Z,1028.67
2019-02-24T08:08:43.199Z,1028.72
2019-02-24T08:09:43.224Z,1028.73
2019-02-24T08:10:43.186Z,1028.70
2019-02-24T08:11:43.167Z,1028.71
2019-02-24T08:12:43.171Z,1028.81
2019-02-24T08:13:44.095Z,1028.80
2019-02-24T08:14:43.163Z,1028.79
2019-02-24T08:15:43.121Z,1028.85
2019-02-24T08:16:43.119Z,1028.79
2019-02-24T08:17:43.106Z,1028.82
2019-02-24T08:18:49.312Z,1028.81
2019-02-24T08:19:43.104Z,1028.91
2019-02-24T08:20:43.074Z,1028.91
2019-02-24T08:21:43.125Z,1028.91
2019-02-24T08:22:43.055Z,1028.97
2019-02-24T08:23:43.037Z,1029.02
2019-02-24T08:24:43.052Z,1028.99
2019-02-24T08:25:43.018Z,1029.02
2019-02-24T08:26:43.013Z,1029.12
2019-02-24T08:27:43.012Z,1029.08
2019-02-24T08:28:42.990Z,1029.06
2019-02-24T08:29:43.001Z,1029.14
2019-02-24T08:30:42.994Z,1029.13
2019-02-24T08:31:42.960Z,1029.13
2019-02-24T08:32:42.947Z,1029.13
2019-02-24T08:33:42.933Z,1029.10
2019-02-24T08:34:42.942Z,1029.16
2019-02-24T08:35:42.931Z,1029.18
2019-02-24T08:36:42.902Z,1029.16
2019-02-24T08:37:42.896Z,1029.17
2019-02-24T08:38:42.918Z,1029.21
2019-02-24T08:39:42.900Z,1029.25
2019-02-24T08:40:42.864Z,1029.27
2019-02-24T08:41:42.904Z,1029.23
2019-02-24T08:42:42.839Z,1029.22
2019-02-24T08:43:42.829Z,1029.20
2019-02-24T08:44:42.840Z,1029.25
2019-02-24T08:45:42.803Z,1029.24
2019-02-24T08:46:42.794Z,1029.17
2019-02-24T08:47:42.786Z,1029.23
2019-02-24T08:48:42.774Z,1029.21
2019-02-24T08:49:42.794Z,1029.26
2019-02-24T08:50:42.751Z,1029.20
2019-02-24T08:51:42.761Z,1029.23
2019-02-24T08:52:42.728Z,1029.28
2019-02-24T08:53:42.724Z,1029.25
2019-02-24T08:54:42.738Z,1029.28
2019-02-24T08:55:42.713Z,1029.36
2019-02-24T08:56:42.690Z,1029.37
2019-02-24T08:57:42.679Z,1029.43
2019-02-24T08:58:42.670Z,1029.41
2019-02-24T08:59:42.688Z,1029.41
2019-02-24T09:00:50.764Z,1029.44
2019-02-24T09:01:43.644Z,1029.42
2019-02-24T09:02:42.622Z,1029.45
2019-02-24T09:03:42.613Z,1029.41
2019-02-24T09:04:42.628Z,1029.37
2019-02-24T09:05:42.588Z,1029.36
2019-02-24T09:06:42.581Z,1029.38
2019-02-24T09:07:42.587Z,1029.39
2019-02-24T09:08:42.569Z,1029.40
2019-02-24T09:09:42.555Z,1029.44
2019-02-24T09:10:42.565Z,1029.44
2019-02-24T09:11:42.534Z,1029.42
2019-02-24T09:12:42.516Z,1029.40
2019-02-24T09:13:42.510Z,1029.39
2019-02-24T09:14:42.500Z,1029.40
2019-02-24T09:15:42.509Z,1029.39
2019-02-24T09:16:42.480Z,1029.38
2019-02-24T09:17:42.509Z,1029.44
2019-02-24T09:18:42.502Z,1029.41
2019-02-24T09:19:42.440Z,1029.42
2019-02-24T09:20:42.462Z,1029.45
2019-02-24T09:21:42.434Z,1029.39
2019-02-24T09:22:42.419Z,1029.39
2019-02-24T09:23:42.407Z,1029.47
2019-02-24T09:24:42.389Z,1029.38
2019-02-24T09:25:42.422Z,1029.40
2019-02-24T09:26:42.373Z,1029.39
2019-02-24T09:27:42.363Z,1029.40
2019-02-24T09:28:42.346Z,1029.43
2019-02-24T09:29:42.367Z,1029.42
2019-02-24T09:30:42.368Z,1029.41
2019-02-24T09:31:42.321Z,1029.42
2019-02-24T09:32:42.314Z,1029.43
2019-02-24T09:33:42.294Z,1029.44
2019-02-24T09:34:42.295Z,1029.45
2019-02-24T09:35:42.310Z,1029.43
2019-02-24T09:36:42.263Z,1029.45
2019-02-24T09:37:42.251Z,1029.43
2019-02-24T09:38:42.245Z,1029.48
2019-02-24T09:39:42.236Z,1029.54
2019-02-24T09:40:42.291Z,1029.46
2019-02-24T09:41:42.216Z,1029.52
2019-02-24T09:42:42.199Z,1029.56
2019-02-24T09:43:42.193Z,1029.56
2019-02-24T09:44:42.178Z,1029.55
2019-02-24T09:45:42.216Z,1029.56
2019-02-24T09:46:42.159Z,1029.54
2019-02-24T09:47:46.723Z,1029.51
2019-02-24T09:48:43.131Z,1029.52
2019-02-24T09:49:42.121Z,1029.52
2019-02-24T09:50:42.145Z,1029.53
2019-02-24T09:51:42.106Z,1029.58
2019-02-24T09:52:42.097Z,1029.56
2019-02-24T09:53:42.085Z,1029.56
2019-02-24T09:54:42.072Z,1029.55
2019-02-24T09:55:42.088Z,1029.57
2019-02-24T09:56:42.052Z,1029.57
2019-02-24T09:57:42.046Z,1029.48
2019-02-24T09:58:42.029Z,1029.55
2019-02-24T09:59:42.032Z,1029.52
2019-02-24T10:00:42.032Z,1029.50
2019-02-24T10:01:41.994Z,1029.47
2019-02-24T10:02:41.994Z,1029.50
2019-02-24T10:03:41.979Z,1029.47
2019-02-24T10:04:41.967Z,1029.49
2019-02-24T10:05:41.989Z,1029.48
2019-02-24T10:06:41.939Z,1029.42
2019-02-24T10:07:41.933Z,1029.44
2019-02-24T10:08:41.933Z,1029.43
2019-02-24T10:09:41.917Z,1029.40
2019-02-24T10:10:41.950Z,1029.37
2019-02-24T10:11:41.901Z,1029.36
2019-02-24T10:12:41.876Z,1029.39
2019-02-24T10:13:41.881Z,1029.33
2019-02-24T10:14:41.867Z,1029.41
2019-02-24T10:15:41.965Z,1029.35
2019-02-24T10:16:41.836Z,1029.38
2019-02-24T10:17:41.829Z,1029.41
2019-02-24T10:18:41.824Z,1029.43
2019-02-24T10:19:41.799Z,1029.42
2019-02-24T10:20:41.924Z,1029.42
2019-02-24T10:21:41.788Z,1029.47
2019-02-24T10:22:41.767Z,1029.48
2019-02-24T10:23:41.775Z,1029.44
2019-02-24T10:24:41.751Z,1029.42
2019-02-24T10:25:41.755Z,1029.42
2019-02-24T10:26:41.757Z,1029.49
2019-02-24T10:27:41.710Z,1029.48
2019-02-24T10:28:41.728Z,1029.47
2019-02-24T10:29:41.695Z,1029.47
2019-02-24T10:30:41.711Z,1029.45
2019-02-24T10:31:41.675Z,1029.46
2019-02-24T10:32:41.677Z,1029.50
2019-02-24T10:33:41.645Z,1029.50
2019-02-24T10:34:41.636Z,1029.49
2019-02-24T10:35:41.653Z,1029.49
2019-02-24T10:36:41.615Z,1029.50
2019-02-24T10:37:41.639Z,1029.56
2019-02-24T10:38:41.610Z,1029.57
2019-02-24T10:39:41.608Z,1029.54
2019-02-24T10:40:41.595Z,1029.54
2019-02-24T10:41:41.564Z,1029.58
2019-02-24T10:42:41.557Z,1029.62
2019-02-24T10:43:41.538Z,1029.62
2019-02-24T10:44:41.557Z,1029.65
2019-02-24T10:45:41.553Z,1029.66
2019-02-24T10:46:41.514Z,1029.70
2019-02-24T10:47:41.496Z,1029.66
2019-02-24T10:48:41.511Z,1029.65
2019-02-24T10:49:41.492Z,1029.71
2019-02-24T10:50:41.491Z,1029.70
2019-02-24T10:51:41.462Z,1029.73
2019-02-24T10:52:41.451Z,1029.77
2019-02-24T10:53:41.437Z,1029.78
2019-02-24T10:54:41.421Z,1029.73
2019-02-24T10:55:41.437Z,1029.79
2019-02-24T10:56:41.404Z,1029.79
2019-02-24T10:57:41.398Z,1029.83
2019-02-24T10:58:41.385Z,1029.81
2019-02-24T10:59:41.401Z,1029.83
2019-02-24T11:00:41.393Z,1029.83
2019-02-24T11:01:41.350Z,1029.84
2019-02-24T11:02:41.341Z,1029.77
2019-02-24T11:03:41.328Z,1029.82
2019-02-24T11:04:41.313Z,1029.77
2019-02-24T11:05:41.332Z,1029.82
2019-02-24T11:06:41.308Z,1029.80
2019-02-24T11:07:41.303Z,1029.80
2019-02-24T11:08:41.275Z,1029.84
2019-02-24T11:09:41.261Z,1029.76
2019-02-24T11:10:41.282Z,1029.81
2019-02-24T11:11:41.240Z,1029.86
2019-02-24T11:12:41.232Z,1029.80
2019-02-24T11:13:41.252Z,1029.75
2019-02-24T11:14:41.221Z,1029.77
2019-02-24T11:15:41.261Z,1029.78
2019-02-24T11:16:41.187Z,1029.75
2019-02-24T11:17:41.183Z,1029.79
2019-02-24T11:18:41.169Z,1029.76
2019-02-24T11:19:41.159Z,1029.73
2019-02-24T11:20:41.152Z,1029.73
2019-02-24T11:21:41.174Z,1029.71
2019-02-24T11:22:41.134Z,1029.77
2019-02-24T11:23:41.129Z,1029.69
2019-02-24T11:24:41.119Z,1029.72
2019-02-24T11:25:41.094Z,1029.67
2019-02-24T11:26:41.112Z,1029.65
2019-02-24T11:27:41.075Z,1029.66
2019-02-24T11:28:41.064Z,1029.62
2019-02-24T11:29:41.058Z,1029.64
2019-02-24T11:30:41.042Z,1029.64
2019-02-24T11:31:41.057Z,1029.54
2019-02-24T11:32:41.036Z,1029.58
2019-02-24T11:33:41.011Z,1029.62
2019-02-24T11:34:41.001Z,1029.59
2019-02-24T11:35:40.991Z,1029.62
2019-02-24T11:36:41.015Z,1029.57
2019-02-24T11:37:40.967Z,1029.56
2019-02-24T11:38:40.954Z,1029.62
2019-02-24T11:39:40.968Z,1029.64
2019-02-24T11:40:40.932Z,1029.65
2019-02-24T11:41:40.953Z,1029.64
2019-02-24T11:42:40.922Z,1029.56
2019-02-24T11:43:40.937Z,1029.54
2019-02-24T11:44:40.901Z,1029.54
2019-02-24T11:45:40.888Z,1029.50
2019-02-24T11:46:40.901Z,1029.56
2019-02-24T11:47:40.865Z,1029.48
2019-02-24T11:48:40.845Z,1029.55
2019-02-24T11:49:40.851Z,1029.56
2019-02-24T11:50:40.826Z,1029.50
2019-02-24T11:51:40.862Z,1029.57
2019-02-24T11:52:40.800Z,1029.57
2019-02-24T11:53:40.793Z,1029.54
2019-02-24T11:54:40.796Z,1029.58
2019-02-24T11:55:40.778Z,1029.57
2019-02-24T11:56:40.788Z,1029.56
2019-02-24T11:57:40.757Z,1029.54
2019-02-24T11:58:40.741Z,1029.59
2019-02-24T11:59:40.732Z,1029.61
2019-02-24T12:00:40.714Z,1029.52
2019-02-24T12:01:47.279Z,1029.49
2019-02-24T12:02:42.026Z,1029.44
2019-02-24T12:03:40.683Z,1029.48
2019-02-24T12:04:40.686Z,1029.44
2019-02-24T12:05:40.668Z,1029.41